Time;durP1;ratioP1;P1;durP2;ratioP2;P2;SDS_P1;SDS_P2;PMS_P1;PMS_P2;Temp;Humidity;BMP_temperature;BMP_pressure;BME280_temperature;BME280_humidity;BME280_pressure;Samples;Min_cycle;Max_cycle;Signal;HPM_P1;HPM_P2
2022/03/09 00:02:17;;;;;;;0.20;0.20;;;;;;;19.69;30.31;101806.44;5112009;28;20126;-34
2022/03/09 00:04:43;;;;;;;0.20;0.20;;;;;;;19.69;30.37;101806.44;5092772;28;20521;-34
2022/03/09 00:07:09;;;;;;;0.20;0.20;;;;;;;19.69;30.56;101809.19;5118751;28;20074;-33
2022/03/09 00:09:34;;;;;;;0.20;0.20;;;;;;;19.69;30.39;101812.84;5112820;28;20067;-34
2022/03/09 00:12:02;;;;;;;0.20;0.20;;;;;;;19.68;30.42;101811.13;5115081;28;20470;-34
2022/03/09 00:14:29;;;;;;;0.20;0.20;;;;;;;19.69;30.56;101821.13;5111845;27;20413;-36
2022/03/09 00:16:54;;;;;;;0.20;0.20;;;;;;;19.69;30.55;101821.13;5111958;28;20051;-32
2022/03/09 00:19:20;;;;;;;0.20;0.20;;;;;;;19.66;30.51;101818.88;5113812;28;20050;-32
2022/03/09 00:21:46;;;;;;;0.20;0.20;;;;;;;19.66;30.76;101816.09;5116594;28;20482;-35
2022/03/09 00:24:14;;;;;;;0.20;0.20;;;;;;;19.67;30.80;101819.69;5115602;28;20070;-35
2022/03/09 00:26:40;;;;;;;;;;;;;;;19.66;30.41;101824.41;5112080;28;20536;-34
2022/03/09 00:29:06;;;;;;;0.20;0.20;;;;;;;19.67;30.65;101825.22;5110838;28;19963;-33
2022/03/09 00:31:32;;;;;;;0.28;0.28;;;;;;;19.65;30.46;101833.78;5107591;28;20390;-34
2022/03/09 00:33:58;;;;;;;0.20;0.20;;;;;;;19.67;30.49;101830.75;5111488;28;20043;-33
2022/03/09 00:36:23;;;;;;;0.20;0.20;;;;;;;19.67;30.56;101836.28;5113924;28;20048;-34
2022/03/09 00:38:49;;;;;;;0.20;0.20;;;;;;;19.65;30.50;101831.03;5118847;28;20406;-35
2022/03/09 00:41:15;;;;;;;0.20;0.20;;;;;;;19.65;30.36;101836.56;5106973;28;20043;-32
2022/03/09 00:43:41;;;;;;;0.20;0.20;;;;;;;19.66;30.83;101835.44;5108178;28;20047;-34
2022/03/09 00:46:06;;;;;;;0.20;0.20;;;;;;;19.65;30.48;101838.50;5111230;28;20055;-34
2022/03/09 00:48:36;;;;;;;0.20;0.20;;;;;;;19.67;30.44;101839.03;5107450;28;20539;-34
2022/03/09 00:51:02;;;;;;;0.20;0.20;;;;;;;19.65;30.68;101838.50;5110518;28;20235;-34
2022/03/09 00:53:27;;;;;;;0.20;0.20;;;;;;;19.65;30.41;101844.84;5112977;28;20039;-32
2022/03/09 00:55:53;;;;;;;0.22;0.22;;;;;;;19.65;30.73;101841.25;5108723;28;20458;-36
2022/03/09 00:58:19;;;;;;;0.20;0.20;;;;;;;19.64;30.73;101836.78;5109611;28;20470;-34
2022/03/09 01:00:44;;;;;;;0.30;0.30;;;;;;;19.64;30.87;101840.38;5112832;28;20053;-36
2022/03/09 01:03:10;;;;;;;0.20;0.20;;;;;;;19.63;30.61;101835.97;5112585;28;20047;-34
2022/03/09 01:05:39;;;;;;;0.20;0.20;;;;;;;19.64;30.83;101837.63;5105076;28;20412;-34
2022/03/09 01:08:05;;;;;;;0.20;0.20;;;;;;;19.62;30.70;101848.13;5117026;28;20083;-34
2022/03/09 01:10:31;;;;;;;0.20;0.20;;;;;;;19.63;30.77;101843.44;5105806;28;20047;-34
2022/03/09 01:12:56;;;;;;;0.20;0.20;;;;;;;19.63;30.96;101847.03;5111074;28;20119;-35
2022/03/09 01:15:22;;;;;;;0.20;0.20;;;;;;;19.63;30.79;101838.72;5107385;28;20044;-32
2022/03/09 01:17:48;;;;;;;0.20;0.20;;;;;;;19.64;30.73;101839.56;5114114;28;20039;-37
2022/03/09 01:20:14;;;;;;;0.20;0.20;;;;;;;19.63;30.84;101843.44;5111097;28;20040;-34
2022/03/09 01:22:40;;;;;;;0.20;0.20;;;;;;;19.63;30.66;101837.91;5106105;28;20055;-34
2022/03/09 01:25:06;;;;;;;0.20;0.20;;;;;;;19.62;30.57;101837.06;5110800;28;20051;-32
2022/03/09 01:27:31;;;;;;;0.20;0.20;;;;;;;19.61;30.62;101835.41;5114589;28;20096;-35
2022/03/09 01:29:57;;;;;;;0.20;0.20;;;;;;;19.62;30.84;101833.47;5111626;28;20047;-37
2022/03/09 01:32:23;;;;;;;0.20;0.20;;;;;;;19.62;30.78;101834.31;5117683;28;21514;-37
2022/03/09 01:34:49;;;;;;;0.20;0.20;;;;;;;19.62;30.55;101831.53;5110957;28;20395;-34
2022/03/09 01:37:15;;;;;;;0.20;0.20;;;;;;;19.62;30.72;101827.94;5107608;28;20053;-34
2022/03/09 01:39:40;;;;;;;0.20;0.20;;;;;;;19.61;30.83;101827.13;5110764;28;20434;-34
2022/03/09 01:42:06;;;;;;;0.20;0.20;;;;;;;19.60;30.71;101825.41;5106670;28;20058;-32
2022/03/09 01:44:32;;;;;;;0.20;0.20;;;;;;;19.62;30.78;101820.50;5113991;28;20051;-37
2022/03/09 01:46:58;;;;;;;0.20;0.20;;;;;;;19.63;30.80;101815.78;5110582;28;20058;-32
2022/03/09 01:49:24;;;;;;;0.20;0.20;;;;;;;19.62;30.99;101814.13;5111884;28;20046;-33
2022/03/09 01:51:56;;;;;;;0.20;0.20;;;;;;;19.62;30.72;101817.72;5112816;28;20493;-32
2022/03/09 01:54:22;;;;;;;0.20;0.20;;;;;;;19.61;30.97;101820.75;5105624;28;20043;-35
2022/03/09 01:56:48;;;;;;;0.30;0.30;;;;;;;19.62;30.97;101814.13;5112567;28;20124;-34
2022/03/09 01:59:14;;;;;;;0.20;0.20;;;;;;;19.61;30.83;101823.53;5106733;28;20109;-34
2022/03/09 02:01:41;;;;;;;0.20;0.20;;;;;;;19.59;30.92;101818.22;5091673;28;20059;-33
2022/03/09 02:04:07;;;;;;;0.20;0.20;;;;;;;19.59;31.00;101815.44;5094514;28;20039;-33
2022/03/09 02:06:34;;;;;;;0.20;0.20;;;;;;;19.59;30.81;101809.09;5106279;28;20089;-33
2022/03/09 02:11:47;;;;;;;0.20;0.20;;;;;;;19.59;30.82;101807.16;5101038;28;20056;-34
2022/03/09 02:14:36;;;;;;;0.20;0.20;;;;;;;19.58;31.02;101811.03;5106951;28;20376;-34
2022/03/09 02:17:06;;;;;;;0.30;0.30;;;;;;;19.60;30.84;101814.34;5097757;28;20140;-35
2022/03/09 02:19:32;;;;;;;0.30;0.30;;;;;;;19.60;30.91;101819.03;5111129;28;20463;-32
2022/03/09 02:22:07;;;;;;;0.30;0.30;;;;;;;19.57;31.13;101814.88;5073510;28;20044;-33
2022/03/09 02:24:33;;;;;;;0.20;0.20;;;;;;;19.59;31.02;101817.38;5107734;28;20512;-33
2022/03/09 02:26:59;;;;;;;0.30;0.30;;;;;;;19.60;31.10;101821.81;5109264;28;20515;-34
2022/03/09 02:29:25;;;;;;;0.20;0.20;;;;;;;19.59;30.99;101814.63;5110203;28;20081;-33
2022/03/09 02:31:50;;;;;;;0.30;0.30;;;;;;;19.59;31.05;101820.16;5089586;28;20043;-36
2022/03/09 02:34:16;;;;;;;0.20;0.20;;;;;;;19.59;31.05;101812.69;5110270;28;20039;-32
2022/03/09 02:36:42;;;;;;;0.20;0.20;;;;;;;19.58;31.09;101816.56;5110674;28;20431;-34
2022/03/09 02:39:07;;;;;;;0.20;0.20;;;;;;;19.58;31.18;101822.06;5113492;28;20046;-34
2022/03/09 02:41:33;;;;;;;0.30;0.30;;;;;;;19.58;30.95;101826.78;5105192;28;20040;-35
2022/03/09 02:44:01;;;;;;;0.20;0.20;;;;;;;19.58;31.18;101821.25;5110665;28;20043;-33
2022/03/09 02:46:27;;;;;;;0.20;0.20;;;;;;;19.59;30.76;101829.25;5107379;28;20494;-32
2022/03/09 02:48:53;;;;;;;0.20;0.20;;;;;;;19.58;31.12;101819.31;5109565;28;20043;-34
2022/03/09 02:51:18;;;;;;;0.20;0.20;;;;;;;19.59;30.86;101817.38;5103875;28;20066;-33
2022/03/09 02:53:44;;;;;;;0.20;0.20;;;;;;;19.59;30.98;101809.91;5107033;28;20540;-36
2022/03/09 02:56:10;;;;;;;0.20;0.20;;;;;;;19.58;30.86;101813.78;5106192;28;20047;-33
2022/03/09 02:58:36;;;;;;;0.20;0.20;;;;;;;19.55;30.84;101804.09;5111914;28;20047;-35
2022/03/09 03:01:02;;;;;;;0.20;0.20;;;;;;;19.59;30.82;101814.63;5110787;28;20501;-33
2022/03/09 03:03:28;;;;;;;0.20;0.20;;;;;;;19.57;30.87;101800.25;5108170;28;20040;-33
2022/03/09 03:05:54;;;;;;;0.20;0.20;;;;;;;19.57;30.90;101803.00;5108021;28;20050;-34
2022/03/09 03:08:20;;;;;;;0.20;0.20;;;;;;;19.57;30.97;101801.06;5108286;28;20051;-33
2022/03/09 03:10:46;;;;;;;0.20;0.20;;;;;;;19.57;31.05;101800.25;5107020;28;20112;-34
2022/03/09 03:13:11;;;;;;;0.20;0.20;;;;;;;19.58;31.26;101801.91;5112742;28;20051;-35
2022/03/09 03:15:37;;;;;;;0.20;0.20;;;;;;;19.56;31.06;101791.13;5113728;28;20190;-33
2022/03/09 03:18:04;;;;;;;0.20;0.20;;;;;;;19.57;31.05;101800.25;5107751;28;20100;-35
2022/03/09 03:20:29;;;;;;;0.20;0.20;;;;;;;19.58;31.19;101807.44;5104015;28;20071;-33
2022/03/09 03:22:55;;;;;;;0.20;0.20;;;;;;;19.58;31.02;101808.25;5093227;28;20070;-33
2022/03/09 03:25:21;;;;;;;0.20;0.20;;;;;;;19.55;31.06;101804.09;5109702;28;20039;-39
2022/03/09 03:27:49;;;;;;;;;;;;;;;19.56;31.30;101799.41;5113567;28;20089;-33
2022/03/09 03:30:15;;;;;;;0.20;0.20;;;;;;;19.54;31.28;101796.91;5106835;28;19923;-34
2022/03/09 03:32:40;;;;;;;0.20;0.20;;;;;;;19.55;31.13;101784.75;5104832;28;20434;-34
2022/03/09 03:35:08;;;;;;;0.20;0.20;;;;;;;19.55;31.06;101787.50;5109861;28;20040;-32
2022/03/09 03:37:33;;;;;;;0.20;0.20;;;;;;;19.54;31.14;101793.31;5109304;28;20039;-33
2022/03/09 03:39:59;;;;;;;0.20;0.20;;;;;;;19.55;30.96;101795.78;5103741;28;20043;-32
2022/03/09 03:42:25;;;;;;;0.20;0.20;;;;;;;19.53;31.13;101795.25;5106746;28;20055;-32
2022/03/09 03:44:53;;;;;;;0.20;0.20;;;;;;;19.55;31.16;101795.78;5112456;28;20057;-35
2022/03/09 03:47:19;;;;;;;0.20;0.20;;;;;;;19.54;31.01;101785.84;5086397;28;20035;-34
2022/03/09 03:49:45;;;;;;;0.20;0.20;;;;;;;19.52;31.06;101782.53;5110044;28;20058;-37
2022/03/09 03:52:11;;;;;;;0.20;0.20;;;;;;;19.54;31.26;101783.09;5110703;28;20173;-35
2022/03/09 03:54:36;;;;;;;0.20;0.20;;;;;;;19.54;31.32;101782.25;5112435;28;20613;-34
2022/03/09 03:57:02;;;;;;;0.30;0.30;;;;;;;19.54;31.19;101774.78;5107959;28;20056;-34
2022/03/09 03:59:28;;;;;;;0.20;0.20;;;;;;;19.54;31.09;101787.78;5116228;28;20058;-32
2022/03/09 04:01:53;;;;;;;0.20;0.20;;;;;;;19.54;31.05;101788.59;5112530;28;20052;-33
2022/03/09 04:04:19;;;;;;;0.20;0.20;;;;;;;19.55;31.17;101789.44;5112921;28;20127;-33
2022/03/09 04:06:45;;;;;;;0.20;0.20;;;;;;;19.54;31.36;101788.59;5116185;28;20050;-38
2022/03/09 04:09:11;;;;;;;0.20;0.20;;;;;;;19.53;31.07;101786.13;5110575;28;20043;-37
2022/03/09 04:11:37;;;;;;;0.20;0.20;;;;;;;19.52;31.17;101788.06;5110181;28;20063;-35
2022/03/09 04:14:03;;;;;;;0.20;0.20;;;;;;;19.53;31.38;101784.19;5108356;28;20075;-34
2022/03/09 04:16:29;;;;;;;0.20;0.20;;;;;;;19.53;31.18;101784.19;5109394;28;20055;-34
2022/03/09 04:18:55;;;;;;;0.20;0.20;;;;;;;19.52;31.14;101782.53;5108640;28;20374;-32
2022/03/09 04:21:21;;;;;;;0.25;0.25;;;;;;;19.52;31.09;101779.75;5111737;28;20244;-33
2022/03/09 04:23:47;;;;;;;0.20;0.20;;;;;;;19.53;31.32;101784.19;5107965;28;20043;-33
2022/03/09 04:26:12;;;;;;;0.20;0.20;;;;;;;19.54;31.04;101785.00;5108301;28;20266;-33
2022/03/09 04:28:38;;;;;;;0.20;0.20;;;;;;;19.53;31.35;101788.88;5112563;28;20043;-37
2022/03/09 04:31:05;;;;;;;0.20;0.20;;;;;;;19.52;31.20;101793.56;5111918;28;20126;-34
2022/03/09 04:33:31;;;;;;;0.20;0.20;;;;;;;19.53;31.21;101806.28;5109229;28;20047;-33
2022/03/09 04:35:57;;;;;;;0.20;0.20;;;;;;;19.54;31.16;101801.59;5110558;28;20109;-33
2022/03/09 04:38:23;;;;;;;0.20;0.20;;;;;;;19.54;30.97;101788.59;5113477;28;20288;-36
2022/03/09 04:40:49;;;;;;;0.20;0.20;;;;;;;19.53;31.09;101789.72;5108205;28;21004;-34
2022/03/09 04:43:14;;;;;;;0.20;0.20;;;;;;;19.53;31.38;101788.88;5115657;28;20043;-34
2022/03/09 04:45:40;;;;;;;0.20;0.20;;;;;;;19.52;31.22;101787.22;5109767;28;20644;-33
2022/03/09 04:48:06;;;;;;;0.30;0.30;;;;;;;19.53;31.37;101794.41;5109594;28;20275;-34
2022/03/09 04:50:32;;;;;;;0.20;0.20;;;;;;;19.52;31.24;101790.81;5105180;28;20051;-32
2022/03/09 04:52:58;;;;;;;0.30;0.30;;;;;;;19.53;31.14;101786.13;5109734;28;20079;-33
2022/03/09 04:55:24;;;;;;;0.20;0.20;;;;;;;19.53;31.07;101788.88;5109125;28;20107;-33
2022/03/09 04:57:50;;;;;;;0.20;0.20;;;;;;;19.53;31.12;101795.25;5112554;28;20047;-34
2022/03/09 05:00:17;;;;;;;0.20;0.20;;;;;;;19.52;31.47;101795.50;5113183;28;20046;-33
2022/03/09 05:02:43;;;;;;;0.20;0.20;;;;;;;19.52;31.17;101793.56;5108783;28;20043;-37
2022/03/09 05:05:09;;;;;;;0.20;0.20;;;;;;;19.50;31.28;101795.75;5110260;28;20046;-36
2022/03/09 05:07:39;;;;;;;0.20;0.20;;;;;;;19.51;31.22;101791.06;5109702;28;20474;-35
2022/03/09 05:10:05;;;;;;;0.20;0.20;;;;;;;19.52;31.41;101799.09;5107756;28;20497;-35
2022/03/09 05:12:32;;;;;;;0.20;0.20;;;;;;;19.51;31.06;101791.88;5112734;28;20530;-34
2022/03/09 05:14:57;;;;;;;0.20;0.20;;;;;;;19.51;31.32;101791.06;5105846;28;20043;-32
2022/03/09 05:17:23;;;;;;;0.20;0.20;;;;;;;19.52;31.23;101796.34;5107183;28;20043;-32
2022/03/09 05:19:49;;;;;;;0.20;0.20;;;;;;;19.52;31.41;101801.03;5107984;28;20049;-33
2022/03/09 05:22:14;;;;;;;0.20;0.20;;;;;;;19.50;31.33;101797.69;5110079;28;20471;-33
2022/03/09 05:24:50;;;;;;;0.20;0.20;;;;;;;19.49;31.23;101799.63;5110869;28;20470;-32
2022/03/09 05:27:16;;;;;;;0.20;0.20;;;;;;;19.50;31.21;101793.00;5108155;28;20049;-32
2022/03/09 05:29:41;;;;;;;0.30;0.30;;;;;;;19.52;31.49;101804.63;5108580;28;20418;-34
2022/03/09 05:32:07;;;;;;;0.20;0.20;;;;;;;19.49;31.50;101799.63;5105580;28;20128;-36
2022/03/09 05:34:33;;;;;;;0.20;0.20;;;;;;;19.52;31.35;101814.84;5106187;28;20048;-38
2022/03/09 05:36:59;;;;;;;0.22;0.22;;;;;;;19.51;31.21;101814.00;5106941;28;20040;-34
2022/03/09 05:39:24;;;;;;;0.20;0.20;;;;;;;19.49;31.43;101807.06;5110893;28;20052;-35
2022/03/09 05:41:50;;;;;;;0.20;0.20;;;;;;;19.50;31.22;101814.25;5108522;28;20103;-34
2022/03/09 05:44:16;;;;;;;0.20;0.20;;;;;;;19.50;31.31;101804.03;5100317;28;20106;-34
2022/03/09 05:46:42;;;;;;;0.20;0.20;;;;;;;19.49;31.16;101809.84;5105217;28;20052;-34
2022/03/09 05:49:08;;;;;;;0.30;0.30;;;;;;;19.51;31.29;101816.75;5105538;28;20104;-35
2022/03/09 05:51:33;;;;;;;0.20;0.20;;;;;;;19.49;31.13;101821.72;5105890;28;20048;-33
2022/03/09 05:53:59;;;;;;;0.20;0.20;;;;;;;19.49;31.32;101821.72;5103758;28;20402;-35
2022/03/09 05:56:25;;;;;;;0.20;0.20;;;;;;;19.50;31.50;101826.13;5107952;28;20040;-35
2022/03/09 05:58:51;;;;;;;0.20;0.20;;;;;;;19.52;31.23;101823.13;5106473;28;20085;-38
2022/03/09 06:01:16;;;;;;;0.20;0.20;;;;;;;19.59;30.69;101836.72;5102770;28;20082;-35
2022/03/09 06:03:43;;;;;;;0.20;0.20;;;;;;;19.61;31.00;101829.06;5103662;28;20396;-35
2022/03/09 06:06:08;;;;;;;0.20;0.20;;;;;;;19.59;31.27;101832.03;5101024;28;20046;-37
2022/03/09 06:08:34;;;;;;;0.20;0.20;;;;;;;19.59;30.94;101825.66;5110433;28;20050;-34
2022/03/09 06:11:05;;;;;;;0.20;0.20;;;;;;;19.59;31.44;101829.25;5106173;27;20043;-34
2022/03/09 06:13:31;;;;;;;0.20;0.20;;;;;;;19.59;31.34;101826.50;5102756;28;20059;-33
2022/03/09 06:15:57;;;;;;;0.20;0.20;;;;;;;19.59;31.15;101833.97;5102942;28;20054;-36
2022/03/09 06:18:22;;;;;;;0.20;0.20;;;;;;;19.59;31.23;101828.44;5105144;28;20100;-34
2022/03/09 06:20:50;;;;;;;0.20;0.20;;;;;;;19.60;31.38;101830.09;5104721;28;20047;-32
2022/03/09 06:23:18;;;;;;;0.20;0.20;;;;;;;19.60;31.41;101830.09;5102694;28;20423;-34
2022/03/09 06:25:43;;;;;;;0.20;0.20;;;;;;;19.61;31.13;101834.59;5110693;28;20043;-38
2022/03/09 06:28:09;;;;;;;0.20;0.20;;;;;;;19.61;31.11;101834.59;5104414;28;20458;-34
2022/03/09 06:30:35;;;;;;;0.20;0.20;;;;;;;19.61;31.12;101838.16;5105864;28;20080;-33
2022/03/09 06:33:00;;;;;;;0.20;0.20;;;;;;;19.61;30.28;101835.41;5109453;28;20047;-31
2022/03/09 06:35:26;;;;;;;0.20;0.20;;;;;;;19.64;30.69;101845.09;5107718;28;20043;-35
2022/03/09 06:37:56;;;;;;;0.20;0.20;;;;;;;19.67;31.02;101850.94;5106762;28;20062;-35
2022/03/09 06:40:21;;;;;;;0.20;0.20;;;;;;;19.67;30.99;101847.34;5107375;28;20116;-36
2022/03/09 06:42:47;;;;;;;0.20;0.20;;;;;;;19.67;31.16;101847.34;5103203;28;20051;-33
2022/03/09 06:45:13;;;;;;;0.20;0.20;;;;;;;19.66;31.16;101852.03;5104949;28;20066;-33
2022/03/09 06:47:39;;;;;;;0.20;0.20;;;;;;;19.71;30.97;101859.53;5105083;28;20434;-42
2022/03/09 06:50:07;;;;;;;0.20;0.20;;;;;;;19.69;28.60;101859.81;5100321;28;20047;-42
2022/03/09 06:52:33;;;;;;;0.20;0.20;;;;;;;19.71;28.34;101854.00;5102054;28;20044;-43
2022/03/09 06:55:02;;;;;;;0.20;0.20;;;;;;;19.68;27.77;101863.66;5105277;28;20057;-42
2022/03/09 06:57:29;;;;;;;;;;;;;;;19.72;29.02;101855.66;5100709;28;20044;-41
2022/03/09 06:59:56;;;;;;;0.20;0.20;;;;;;;19.65;26.55;101861.44;5098388;28;19988;-44
2022/03/09 07:02:22;;;;;;;0.20;0.20;;;;;;;19.65;26.85;101861.44;5092973;28;20062;-40
2022/03/09 07:04:48;;;;;;;0.20;0.20;;;;;;;19.67;27.54;101858.38;5097145;28;20186;-41
2022/03/09 07:07:14;;;;;;;0.20;0.20;;;;;;;19.67;26.90;101866.69;5103923;28;20040;-42
2022/03/09 07:09:39;;;;;;;0.20;0.20;;;;;;;19.66;27.29;101865.84;5102008;28;20043;-43
2022/03/09 07:12:05;;;;;;;0.20;0.20;;;;;;;19.69;26.72;101870.88;5088457;28;20055;-41
2022/03/09 07:14:31;;;;;;;0.20;0.20;;;;;;;19.71;27.61;101871.41;5097908;28;20593;-42
2022/03/09 07:16:57;;;;;;;0.20;0.20;;;;;;;19.70;27.33;101869.75;5098355;28;20047;-43
2022/03/09 07:19:22;;;;;;;0.20;0.20;;;;;;;19.73;27.69;101865.63;5099824;28;20047;-42
2022/03/09 07:21:49;;;;;;;0.20;0.20;;;;;;;19.73;27.76;101863.72;5089457;28;20039;-40
2022/03/09 07:24:15;;;;;;;0.20;0.20;;;;;;;19.70;27.45;101867.00;5096460;28;20047;-42
2022/03/09 07:26:42;;;;;;;0.20;0.20;;;;;;;19.78;27.16;101860.16;5081851;28;20138;-40
2022/03/09 07:29:09;;;;;;;0.20;0.20;;;;;;;19.76;27.88;101860.41;5095505;28;20078;-41
2022/03/09 07:31:35;;;;;;;0.20;0.20;;;;;;;19.82;27.60;101863.22;5078743;28;20055;-33
2022/03/09 07:34:01;;;;;;;0.20;0.20;;;;;;;19.90;27.34;101859.97;5076249;28;20063;-33
2022/03/09 07:36:26;;;;;;;0.20;0.20;;;;;;;19.94;28.33;101877.72;5095138;28;20142;-34
2022/03/09 07:38:52;;;;;;;0.20;0.20;;;;;;;19.94;28.44;101881.28;5106476;28;20059;-33
2022/03/09 07:41:38;;;;;;;0.20;0.20;;;;;;;19.94;28.44;101881.28;5080744;28;20058;-33
2022/03/09 07:44:03;;;;;;;0.20;0.20;;;;;;;19.95;28.50;101880.22;5100866;28;20052;-34
2022/03/09 07:46:29;;;;;;;0.20;0.20;;;;;;;19.95;28.50;101885.75;5100485;28;20075;-33
2022/03/09 07:48:55;;;;;;;0.20;0.20;;;;;;;19.96;28.77;101887.41;5098084;28;20043;-34
2022/03/09 07:51:20;;;;;;;0.20;0.20;;;;;;;19.97;28.85;101891.00;5095045;28;20466;-34
2022/03/09 07:53:46;;;;;;;0.20;0.20;;;;;;;19.98;28.59;101890.72;5096716;28;20474;-35
2022/03/09 07:56:12;;;;;;;0.20;0.20;;;;;;;19.99;28.87;101897.09;5100004;28;20057;-36
2022/03/09 07:58:39;;;;;;;0.20;0.20;;;;;;;19.99;28.97;101895.19;5102614;28;20051;-32
2022/03/09 08:01:04;;;;;;;0.20;0.20;;;;;;;20.00;28.87;101899.63;5100505;28;20078;-35
2022/03/09 08:03:32;;;;;;;0.20;0.20;;;;;;;20.02;28.77;101899.34;5101556;28;20290;-35
2022/03/09 08:06:04;;;;;;;0.20;0.20;;;;;;;20.02;29.35;101907.63;5092322;28;20060;-32
2022/03/09 08:08:30;;;;;;;0.20;0.20;;;;;;;20.02;29.15;101908.47;5102124;28;20113;-34
2022/03/09 08:10:56;;;;;;;0.20;0.20;;;;;;;20.03;29.14;101918.47;5099469;28;21203;-33
2022/03/09 08:13:22;;;;;;;0.20;0.20;;;;;;;20.03;29.33;101901.88;5103705;28;20039;-32
2022/03/09 08:15:47;;;;;;;0.20;0.20;;;;;;;20.03;29.43;101912.94;5097959;28;20059;-33
2022/03/09 08:18:13;;;;;;;0.30;0.30;;;;;;;20.04;29.06;101911.00;5104217;28;20047;-33
2022/03/09 08:20:39;;;;;;;0.20;0.20;;;;;;;20.06;29.27;101911.56;5102267;28;21166;-32
2022/03/09 08:23:06;;;;;;;0.20;0.20;;;;;;;20.08;29.15;101914.03;5098871;28;20051;-33
2022/03/09 08:25:31;;;;;;;0.20;0.20;;;;;;;20.07;29.46;101915.97;5099366;28;20482;-35
2022/03/09 08:27:58;;;;;;;0.20;0.20;;;;;;;20.08;29.28;101920.44;5101391;28;20047;-37
2022/03/09 08:30:24;;;;;;;0.20;0.20;;;;;;;20.07;29.55;101927.03;5094121;28;20267;-35
2022/03/09 08:32:50;;;;;;;0.20;0.20;;;;;;;20.08;29.42;101930.63;5094766;28;20372;-33
2022/03/09 08:35:16;;;;;;;0.20;0.20;;;;;;;20.08;29.11;101927.88;5095697;28;20051;-32
2022/03/09 08:37:41;;;;;;;0.20;0.20;;;;;;;20.09;29.23;101927.63;5092855;28;20654;-34
2022/03/09 08:40:08;;;;;;;0.20;0.20;;;;;;;20.08;29.57;101928.72;5094363;28;20496;-32
2022/03/09 08:42:33;;;;;;;0.20;0.20;;;;;;;20.09;29.36;101933.16;5092116;28;20140;-37
2022/03/09 08:44:59;;;;;;;0.20;0.20;;;;;;;20.09;29.64;101927.63;5093223;28;20836;-34
2022/03/09 08:47:25;;;;;;;0.20;0.20;;;;;;;20.09;29.71;101935.91;5103594;28;20435;-33
2022/03/09 08:49:50;;;;;;;0.20;0.20;;;;;;;20.10;29.31;101937.59;5101244;28;20090;-33
2022/03/09 08:52:18;;;;;;;0.20;0.20;;;;;;;20.09;29.62;101932.31;5110309;28;20337;-33
2022/03/09 08:54:44;;;;;;;0.20;0.20;;;;;;;20.08;29.32;101930.63;5103359;28;20072;-32
2022/03/09 08:57:10;;;;;;;0.20;0.20;;;;;;;20.09;29.38;101937.84;5082096;28;20380;-32
2022/03/09 08:59:35;;;;;;;0.20;0.20;;;;;;;20.08;29.30;101928.72;5101404;28;20039;-37
2022/03/09 09:02:01;;;;;;;0.20;0.20;;;;;;;20.08;29.33;101930.63;5090225;28;20043;-35
2022/03/09 09:04:27;;;;;;;0.20;0.20;;;;;;;20.08;29.67;101919.56;5077341;28;20071;-34
2022/03/09 09:06:53;;;;;;;0.20;0.20;;;;;;;20.06;29.68;101925.38;5097297;28;20286;-37
2022/03/09 09:09:20;;;;;;;0.20;0.20;;;;;;;20.06;29.86;101933.66;5095505;28;20586;-33
2022/03/09 09:11:45;;;;;;;0.20;0.20;;;;;;;20.07;29.86;101937.25;5096973;28;20059;-33
2022/03/09 09:14:11;;;;;;;0.20;0.20;;;;;;;20.05;29.72;101937.53;5096796;28;20044;-32
2022/03/09 09:16:38;;;;;;;0.20;0.20;;;;;;;20.05;29.62;101937.53;5100162;28;20052;-32
2022/03/09 09:19:05;;;;;;;0.20;0.20;;;;;;;20.02;29.53;101933.34;5100706;28;20120;-33
2022/03/09 09:21:31;;;;;;;0.20;0.20;;;;;;;20.02;29.92;101930.59;5092491;28;20136;-32
2022/03/09 09:23:57;;;;;;;0.20;0.20;;;;;;;19.99;29.85;101925.59;5101709;28;20241;-33
2022/03/09 09:26:23;;;;;;;0.20;0.20;;;;;;;19.99;29.75;101928.38;5104107;28;20043;-36
2022/03/09 09:29:09;;;;;;;0.20;0.20;;;;;;;19.99;29.71;101938.56;5084570;28;20058;-37
2022/03/09 09:31:35;;;;;;;0.20;0.20;;;;;;;19.96;29.69;101923.34;5097750;27;20258;-35
2022/03/09 09:34:02;;;;;;;0.20;0.20;;;;;;;19.95;29.60;101918.94;5100712;28;20047;-33
2022/03/09 09:36:28;;;;;;;0.20;0.20;;;;;;;19.96;29.88;101923.34;5091952;28;20075;-36
2022/03/09 09:38:54;;;;;;;0.20;0.20;;;;;;;19.95;30.05;101929.16;5076686;28;21400;-36
2022/03/09 09:41:24;;;;;;;0.20;0.20;;;;;;;19.96;30.05;101926.13;5093521;28;20051;-34
2022/03/09 09:43:50;;;;;;;0.20;0.20;;;;;;;19.96;30.17;101912.31;5100226;28;20474;-34
2022/03/09 09:46:16;;;;;;;0.20;0.20;;;;;;;19.96;30.09;101919.75;5094172;28;20133;-35
2022/03/09 09:48:43;;;;;;;0.20;0.20;;;;;;;19.95;29.92;101918.94;5095780;28;20111;-34
2022/03/09 09:51:09;;;;;;;0.20;0.20;;;;;;;19.96;30.04;101908.69;5095474;28;20453;-33
2022/03/09 09:53:35;;;;;;;0.20;0.20;;;;;;;19.96;30.03;101906.78;5084630;28;20561;-33
2022/03/09 09:56:02;;;;;;;0.20;0.20;;;;;;;19.96;30.16;101905.94;5094344;28;20517;-34
2022/03/09 09:58:28;;;;;;;0.20;0.20;;;;;;;19.95;30.06;101905.09;5095155;28;20051;-35
2022/03/09 10:00:55;;;;;;;0.20;0.20;;;;;;;19.97;29.94;101910.38;5094355;28;20083;-36
2022/03/09 10:03:21;;;;;;;0.20;0.20;;;;;;;19.97;30.22;101910.38;5094253;28;20051;-33
2022/03/09 10:05:47;;;;;;;0.20;0.20;;;;;;;19.96;30.03;101915.06;5096162;28;20229;-36
2022/03/09 10:08:16;;;;;;;0.20;0.20;;;;;;;19.95;30.21;101915.34;5091267;28;20050;-34
2022/03/09 10:10:46;;;;;;;0.20;0.20;;;;;;;19.94;30.28;101908.94;5097239;28;20075;-36
2022/03/09 10:13:17;;;;;;;0.20;0.20;;;;;;;19.94;30.23;101913.66;5092105;28;20180;-34
2022/03/09 10:15:44;;;;;;;0.20;0.20;;;;;;;19.96;30.03;101914.22;5103893;28;20340;-33
2022/03/09 10:18:16;;;;;;;0.20;0.20;;;;;;;19.96;30.12;101917.00;5099807;28;20035;-36
2022/03/09 10:20:43;;;;;;;0.20;0.20;;;;;;;19.95;30.21;101918.09;5087938;28;20295;-33
2022/03/09 10:23:09;;;;;;;0.20;0.20;;;;;;;19.95;30.34;101920.88;5101514;28;20047;-34
2022/03/09 10:25:34;;;;;;;0.20;0.20;;;;;;;19.94;29.96;101916.41;5103661;28;20125;-33
2022/03/09 10:28:06;;;;;;;0.20;0.20;;;;;;;19.95;30.19;101905.09;5101989;28;20047;-35
2022/03/09 10:30:34;;;;;;;0.20;0.20;;;;;;;19.94;30.36;101913.66;5101275;28;20086;-33
2022/03/09 10:33:06;;;;;;;0.20;0.20;;;;;;;19.94;30.27;101900.66;5099308;28;20512;-32
2022/03/09 10:40:58;;;;;;;0.20;0.20;;;;;;;19.93;30.12;101912.81;5153254;27;20544;-31
2022/03/09 10:43:28;;;;;;;0.20;0.20;;;;;;;19.92;30.01;101911.16;5131435;27;20081;-31
2022/03/09 10:49:00;;;;;;;0.20;0.20;;;;;;;19.95;30.28;101904.28;5161024;27;20491;-31
2022/03/09 10:51:35;;;;;;;0.20;0.20;;;;;;;19.94;30.19;101900.66;5108206;27;20362;-33
2022/03/09 10:54:04;;;;;;;0.20;0.20;;;;;;;19.93;30.29;101896.22;5140211;27;20078;-31
2022/03/09 10:56:30;;;;;;;0.20;0.20;;;;;;;19.93;30.21;101903.69;5140906;27;20134;-31
2022/03/09 10:58:56;;;;;;;0.20;0.20;;;;;;;19.91;30.44;101887.38;5143780;27;20058;-31
2022/03/09 11:01:23;;;;;;;0.30;0.30;;;;;;;19.92;30.39;101893.72;5154485;27;20368;-32
2022/03/09 11:03:49;;;;;;;0.10;0.10;;;;;;;19.92;30.26;101902.84;5146701;27;20057;-32
2022/03/09 11:06:17;;;;;;;0.20;0.20;;;;;;;19.91;30.16;101889.31;5146360;27;20118;-31
2022/03/09 11:08:42;;;;;;;0.20;0.20;;;;;;;19.91;30.24;101892.06;5138437;27;20046;-31
2022/03/09 11:11:09;;;;;;;0.20;0.20;;;;;;;19.90;30.23;101885.69;5145305;27;20461;-34
2022/03/09 11:13:36;;;;;;;0.20;0.20;;;;;;;19.91;30.18;101892.06;5152250;27;20441;-35
2022/03/09 11:16:03;;;;;;;0.30;0.30;;;;;;;19.80;29.71;101886.44;5125037;27;20052;-34
2022/03/09 11:18:30;;;;;;;0.20;0.20;;;;;;;19.91;30.38;101886.53;5144188;27;20523;-33
2022/03/09 11:20:58;;;;;;;0.20;0.20;;;;;;;19.95;30.12;101883.00;5142696;27;20060;-36
2022/03/09 11:23:24;;;;;;;0.20;0.20;;;;;;;19.92;30.29;101877.97;5142909;27;20205;-36
2022/03/09 11:25:55;;;;;;;0.20;0.20;;;;;;;19.92;30.40;101880.75;5119321;27;20378;-33
2022/03/09 11:28:26;;;;;;;0.20;0.20;;;;;;;19.93;30.18;101878.81;5141236;27;20050;-36
2022/03/09 11:30:55;;;;;;;0.25;0.25;;;;;;;19.92;30.34;101869.69;5142959;27;20123;-37
2022/03/09 11:33:45;;;;;;;0.20;0.20;;;;;;;19.93;30.18;101859.44;5147549;27;20046;-35
2022/03/09 11:36:33;;;;;;;0.20;0.20;;;;;;;19.92;30.17;101858.63;5123711;27;20074;-34